PWSweather.com
Personal Weather Stations
Station Observations
CANDIOTINO
Barrio Candioti Norte, Santa FeAR 3000

Barrio Candioti NorteSanta FeAR 3000

Lat: -31.632778, Lon: -60.695556

Elevation: 69

Station Type: WH-1081

http://www.eltiempoensantafe.com.ar

High Low Average
Temperature 86.4°F30.2°C 50.9°F10.5°C 66.5°F19.2°C
Dew Point 63.2°F17.3°C 42.6°F5.9°C 56.4°F13.6°C
Winds 19.0 mph 30.6 kmh 0.7 mph 1.1 kmh 6.0 mph SE9.7 kmh SE
Wind Gusts 34.2 mph55.0 kmh 3.8 mph6.1 kmh 13.0 mph20.9 kmh
Humidity 89% 46% 71%
Pressure 30.11 in1019.6 mb 29.79 in1008.8 mb -
Precipitation 0.24 in6.1 mm - -
Hour Temp Dew Point Humidity Winds Wind Gusts Pressure Precip Precip Rate Daily Precip Total
12:00 AM 65.7°F18.7°C 57.9°F14.4°C 76% 3.1 mph N5.0 kmh N 6.9 mph11.1 kmh 29.84 in1010.5 mb 0.00 in0.0 mm 0.00 in0.0 mm 0.00 in0.0 mm
12:15 AM 65.1°F18.4°C 57.4°F14.1°C 76% 3.8 mph N6.1 kmh N 9.2 mph14.8 kmh 29.84 in1010.5 mb 0.00 in0.0 mm 0.00 in0.0 mm 0.00 in0.0 mm
12:30 AM 64.9°F18.3°C 57.6°F14.2°C 77% 3.1 mph N5.0 kmh N 6.9 mph11.1 kmh 29.84 in1010.5 mb 0.00 in0.0 mm 0.00 in0.0 mm 0.00 in0.0 mm
12:45 AM 64.8°F18.2°C 57.8°F14.3°C 78% 4.5 mph NNE7.2 kmh NNE 6.0 mph9.7 kmh 29.84 in1010.5 mb 0.00 in0.0 mm 0.00 in0.0 mm 0.00 in0.0 mm
01:00 AM 64.8°F18.2°C 57.8°F14.3°C 78% 1.6 mph NE2.6 kmh NE 5.4 mph8.7 kmh 29.85 in1010.8 mb 0.00 in0.0 mm 0.00 in0.0 mm 0.00 in0.0 mm
01:15 AM 64.4°F18.0°C 57.8°F14.3°C 79% 2.2 mph N3.5 kmh N 5.4 mph8.7 kmh 29.83 in1010.2 mb 0.00 in0.0 mm 0.00 in0.0 mm 0.00 in0.0 mm
01:30 AM 64.2°F17.9°C 57.9°F14.4°C 80% 3.1 mph NNE5.0 kmh NNE 6.0 mph9.7 kmh 29.84 in1010.5 mb 0.00 in0.0 mm 0.00 in0.0 mm 0.00 in0.0 mm
01:45 AM 64.2°F17.9°C 58.3°F14.6°C 81% 2.2 mph NNE3.5 kmh NNE 6.0 mph9.7 kmh 29.84 in1010.5 mb 0.00 in0.0 mm 0.00 in0.0 mm 0.00 in0.0 mm
02:00 AM 63.9°F17.7°C 57.9°F14.4°C 81% 2.2 mph N3.5 kmh N 4.5 mph7.2 kmh 29.83 in1010.2 mb 0.00 in0.0 mm 0.00 in0.0 mm 0.00 in0.0 mm
02:15 AM 63.7°F17.6°C 58.1°F14.5°C 82% 2.2 mph NE3.5 kmh NE 6.0 mph9.7 kmh 29.82 in1009.8 mb 0.00 in0.0 mm 0.00 in0.0 mm 0.00 in0.0 mm
02:30 AM 63.7°F17.6°C 58.1°F14.5°C 82% 2.2 mph NNE3.5 kmh NNE 7.6 mph12.2 kmh 29.82 in1009.8 mb 0.00 in0.0 mm 0.00 in0.0 mm 0.00 in0.0 mm
02:45 AM 63.9°F17.7°C 58.3°F14.6°C 82% 3.1 mph NNE5.0 kmh NNE 7.6 mph12.2 kmh 29.81 in1009.5 mb 0.00 in0.0 mm 0.00 in0.0 mm 0.00 in0.0 mm
03:00 AM 63.5°F17.5°C 58.3°F14.6°C 83% 2.2 mph NE3.5 kmh NE 6.0 mph9.7 kmh 29.80 in1009.1 mb 0.00 in0.0 mm 0.00 in0.0 mm 0.00 in0.0 mm
03:15 AM 63.5°F17.5°C 58.6°F14.8°C 84% 3.8 mph NE6.1 kmh NE 9.2 mph14.8 kmh 29.80 in1009.1 mb 0.00 in0.0 mm 0.00 in0.0 mm 0.00 in0.0 mm
03:30 AM 63.7°F17.6°C 58.8°F14.9°C 84% 5.4 mph N8.7 kmh N 11.4 mph18.3 kmh 29.80 in1009.1 mb 0.00 in0.0 mm 0.00 in0.0 mm 0.00 in0.0 mm
03:45 AM 63.7°F17.6°C 58.8°F14.9°C 84% 2.2 mph NNE3.5 kmh NNE 7.6 mph12.2 kmh 29.79 in1008.8 mb 0.00 in0.0 mm 0.00 in0.0 mm 0.00 in0.0 mm
04:00 AM 63.9°F17.7°C 59.0°F15.0°C 84% 3.1 mph NNE5.0 kmh NNE 6.0 mph9.7 kmh 29.80 in1009.1 mb 0.00 in0.0 mm 0.00 in0.0 mm 0.00 in0.0 mm
04:15 AM 63.9°F17.7°C 59.0°F15.0°C 84% 3.8 mph NNE6.1 kmh NNE 6.9 mph11.1 kmh 29.80 in1009.1 mb 0.00 in0.0 mm 0.00 in0.0 mm 0.00 in0.0 mm
04:30 AM 63.7°F17.6°C 58.4°F14.7°C 83% 1.6 mph NE2.6 kmh NE 8.3 mph13.4 kmh 29.79 in1008.8 mb 0.00 in0.0 mm 0.00 in0.0 mm 0.00 in0.0 mm
04:45 AM 63.1°F17.3°C 58.2°F14.6°C 84% 2.2 mph NNE3.5 kmh NNE 6.0 mph9.7 kmh 29.79 in1008.8 mb 0.00 in0.0 mm 0.00 in0.0 mm 0.00 in0.0 mm
05:00 AM 63.0°F17.2°C 58.1°F14.5°C 84% 3.1 mph NE5.0 kmh NE 6.9 mph11.1 kmh 29.79 in1008.8 mb 0.00 in0.0 mm 0.00 in0.0 mm 0.00 in0.0 mm
05:15 AM 62.8°F17.1°C 58.2°F14.6°C 85% 1.6 mph NE2.6 kmh NE 5.4 mph8.7 kmh 29.80 in1009.1 mb 0.00 in0.0 mm 0.00 in0.0 mm 0.00 in0.0 mm
05:30 AM 62.6°F17.0°C 58.0°F14.4°C 85% 4.5 mph NE7.2 kmh NE 6.9 mph11.1 kmh 29.79 in1008.8 mb 0.00 in0.0 mm 0.00 in0.0 mm 0.00 in0.0 mm
05:45 AM 62.6°F17.0°C 58.0°F14.4°C 85% 2.2 mph E3.5 kmh E 8.3 mph13.4 kmh 29.80 in1009.1 mb 0.00 in0.0 mm 0.00 in0.0 mm 0.00 in0.0 mm
06:00 AM 62.4°F16.9°C 58.2°F14.6°C 86% 4.5 mph NNE7.2 kmh NNE 6.9 mph11.1 kmh 29.80 in1009.1 mb 0.00 in0.0 mm 0.00 in0.0 mm 0.00 in0.0 mm
06:15 AM 62.4°F16.9°C 58.2°F14.6°C 86% 2.2 mph NNE3.5 kmh NNE 6.9 mph11.1 kmh 29.80 in1009.1 mb 0.00 in0.0 mm 0.00 in0.0 mm 0.00 in0.0 mm
06:30 AM 62.4°F16.9°C 58.2°F14.6°C 86% 3.1 mph NE5.0 kmh NE 7.6 mph12.2 kmh 29.80 in1009.1 mb 0.00 in0.0 mm 0.00 in0.0 mm 0.00 in0.0 mm
06:45 AM 62.2°F16.8°C 58.0°F14.4°C 86% 2.2 mph N3.5 kmh N 7.6 mph12.2 kmh 29.81 in1009.5 mb 0.00 in0.0 mm 0.00 in0.0 mm 0.00 in0.0 mm
07:00 AM 62.2°F16.8°C 58.0°F14.4°C 86% 3.1 mph N5.0 kmh N 7.6 mph12.2 kmh 29.82 in1009.8 mb 0.00 in0.0 mm 0.00 in0.0 mm 0.00 in0.0 mm
07:15 AM 62.2°F16.8°C 58.0°F14.4°C 86% 4.5 mph NE7.2 kmh NE 6.9 mph11.1 kmh 29.83 in1010.2 mb 0.00 in0.0 mm 0.00 in0.0 mm 0.00 in0.0 mm
07:30 AM 62.2°F16.8°C 58.0°F14.4°C 86% 3.1 mph NE5.0 kmh NE 6.9 mph11.1 kmh 29.82 in1009.8 mb 0.00 in0.0 mm 0.00 in0.0 mm 0.00 in0.0 mm
07:45 AM 62.4°F16.9°C 57.9°F14.4°C 85% 1.6 mph NNE2.6 kmh NNE 8.3 mph13.4 kmh 29.83 in1010.2 mb 0.00 in0.0 mm 0.00 in0.0 mm 0.00 in0.0 mm
08:00 AM 62.8°F17.1°C 57.9°F14.4°C 84% 4.5 mph NNE7.2 kmh NNE 6.0 mph9.7 kmh 29.84 in1010.5 mb 0.00 in0.0 mm 0.00 in0.0 mm 0.00 in0.0 mm
08:15 AM 63.0°F17.2°C 57.7°F14.3°C 83% 2.2 mph NNE3.5 kmh NNE 9.2 mph14.8 kmh 29.84 in1010.5 mb 0.00 in0.0 mm 0.00 in0.0 mm 0.00 in0.0 mm
08:30 AM 63.3°F17.4°C 58.1°F14.5°C 83% 2.2 mph NNE3.5 kmh NNE 10.7 mph17.2 kmh 29.84 in1010.5 mb 0.00 in0.0 mm 0.00 in0.0 mm 0.00 in0.0 mm
08:45 AM 63.9°F17.7°C 58.3°F14.6°C 82% 3.8 mph N6.1 kmh N 7.6 mph12.2 kmh 29.85 in1010.8 mb 0.00 in0.0 mm 0.00 in0.0 mm 0.00 in0.0 mm
09:00 AM 64.6°F18.1°C 58.6°F14.8°C 81% 3.8 mph NNE6.1 kmh NNE 9.2 mph14.8 kmh 29.85 in1010.8 mb 0.00 in0.0 mm 0.00 in0.0 mm 0.00 in0.0 mm
09:15 AM 65.5°F18.6°C 58.8°F14.9°C 79% 3.8 mph NE6.1 kmh NE 7.6 mph12.2 kmh 29.86 in1011.2 mb 0.00 in0.0 mm 0.00 in0.0 mm 0.00 in0.0 mm
09:30 AM 66.9°F19.4°C 59.1°F15.1°C 76% 3.1 mph NNE5.0 kmh NNE 7.6 mph12.2 kmh 29.86 in1011.2 mb 0.00 in0.0 mm 0.00 in0.0 mm 0.00 in0.0 mm
09:45 AM 68.4°F20.2°C 59.4°F15.2°C 73% 4.5 mph NNE7.2 kmh NNE 8.3 mph13.4 kmh 29.86 in1011.2 mb 0.00 in0.0 mm 0.00 in0.0 mm 0.00 in0.0 mm
10:00 AM 68.7°F20.4°C 59.0°F15.0°C 71% 3.1 mph N5.0 kmh N 8.3 mph13.4 kmh 29.86 in1011.2 mb 0.00 in0.0 mm 0.00 in0.0 mm 0.00 in0.0 mm
10:15 AM 68.5°F20.3°C 59.2°F15.1°C 72% 0.7 mph NNE1.1 kmh NNE 9.2 mph14.8 kmh 29.86 in1011.2 mb 0.00 in0.0 mm 0.00 in0.0 mm 0.00 in0.0 mm
10:30 AM 71.2°F21.8°C 60.2°F15.7°C 68% 1.6 mph NNE2.6 kmh NNE 9.2 mph14.8 kmh 29.86 in1011.2 mb 0.00 in0.0 mm 0.00 in0.0 mm 0.00 in0.0 mm
10:45 AM 71.2°F21.8°C 59.7°F15.4°C 67% 3.1 mph N5.0 kmh N 12.1 mph19.5 kmh 29.86 in1011.2 mb 0.00 in0.0 mm 0.00 in0.0 mm 0.00 in0.0 mm
11:00 AM 72.9°F22.7°C 60.4°F15.8°C 65% 5.4 mph N8.7 kmh N 12.1 mph19.5 kmh 29.86 in1011.2 mb 0.00 in0.0 mm 0.00 in0.0 mm 0.00 in0.0 mm
11:15 AM 74.3°F23.5°C 60.9°F16.1°C 63% 7.6 mph N12.2 kmh N 13.0 mph20.9 kmh 29.86 in1011.2 mb 0.00 in0.0 mm 0.00 in0.0 mm 0.00 in0.0 mm
11:30 AM 78.4°F25.8°C 61.0°F16.1°C 55% 4.5 mph NNE7.2 kmh NNE 13.0 mph20.9 kmh 29.86 in1011.2 mb 0.00 in0.0 mm 0.00 in0.0 mm 0.00 in0.0 mm
11:45 AM 78.1°F25.6°C 61.1°F16.2°C 56% 6.9 mph N11.1 kmh N 9.2 mph14.8 kmh 29.86 in1011.2 mb 0.00 in0.0 mm 0.00 in0.0 mm 0.00 in0.0 mm
12:00 PM 76.6°F24.8°C 60.3°F15.7°C 57% 3.8 mph NNW6.1 kmh NNW 15.2 mph24.5 kmh 29.86 in1011.2 mb 0.00 in0.0 mm 0.00 in0.0 mm 0.00 in0.0 mm
12:15 PM 76.5°F24.7°C 60.6°F15.9°C 58% 5.4 mph N8.7 kmh N 15.9 mph25.6 kmh 29.85 in1010.8 mb 0.00 in0.0 mm 0.00 in0.0 mm 0.00 in0.0 mm
12:30 PM 79.5°F26.4°C 60.9°F16.1°C 53% 4.5 mph N7.2 kmh N 11.4 mph18.3 kmh 29.84 in1010.5 mb 0.00 in0.0 mm 0.00 in0.0 mm 0.00 in0.0 mm
12:45 PM 81.9°F27.7°C 62.0°F16.7°C 51% 6.0 mph N9.7 kmh N 9.8 mph15.8 kmh 29.84 in1010.5 mb 0.00 in0.0 mm 0.00 in0.0 mm 0.00 in0.0 mm
01:00 PM 81.5°F27.5°C 61.1°F16.2°C 50% 6.0 mph N9.7 kmh N 10.7 mph17.2 kmh 29.84 in1010.5 mb 0.00 in0.0 mm 0.00 in0.0 mm 0.00 in0.0 mm
01:15 PM 81.1°F27.3°C 61.3°F16.3°C 51% 3.1 mph N5.0 kmh N 9.8 mph15.8 kmh 29.83 in1010.2 mb 0.00 in0.0 mm 0.00 in0.0 mm 0.00 in0.0 mm
01:30 PM 82.8°F28.2°C 61.1°F16.2°C 48% 5.4 mph NW8.7 kmh NW 9.8 mph15.8 kmh 29.82 in1009.8 mb 0.00 in0.0 mm 0.00 in0.0 mm 0.00 in0.0 mm
01:45 PM 81.7°F27.6°C 61.8°F16.6°C 51% 3.8 mph N6.1 kmh N 7.6 mph12.2 kmh 29.82 in1009.8 mb 0.00 in0.0 mm 0.00 in0.0 mm 0.00 in0.0 mm
02:00 PM 82.9°F28.3°C 61.9°F16.6°C 49% 4.5 mph N7.2 kmh N 7.6 mph12.2 kmh 29.81 in1009.5 mb 0.00 in0.0 mm 0.00 in0.0 mm 0.00 in0.0 mm
02:15 PM 82.8°F28.2°C 61.7°F16.5°C 49% 5.4 mph N8.7 kmh N 7.6 mph12.2 kmh 29.80 in1009.1 mb 0.00 in0.0 mm 0.00 in0.0 mm 0.00 in0.0 mm
02:30 PM 86.4°F30.2°C 63.2°F17.3°C 46% 1.6 mph ENE2.6 kmh ENE 3.8 mph6.1 kmh 29.80 in1009.1 mb 0.00 in0.0 mm 0.00 in0.0 mm 0.00 in0.0 mm
02:45 PM 83.8°F28.8°C 61.5°F16.4°C 47% 3.8 mph NNW6.1 kmh NNW 6.9 mph11.1 kmh 29.79 in1008.8 mb 0.00 in0.0 mm 0.00 in0.0 mm 0.00 in0.0 mm
03:00 PM 81.7°F27.6°C 60.7°F15.9°C 49% 8.3 mph NW13.4 kmh NW 10.7 mph17.2 kmh 29.80 in1009.1 mb 0.00 in0.0 mm 0.00 in0.0 mm 0.00 in0.0 mm
03:15 PM 77.7°F25.4°C 62.8°F17.1°C 60% 3.1 mph WNW5.0 kmh WNW 12.1 mph19.5 kmh 29.79 in1008.8 mb 0.00 in0.0 mm 0.00 in0.0 mm 0.00 in0.0 mm
03:30 PM 79.2°F26.2°C 63.2°F17.3°C 58% 1.6 mph SW2.6 kmh SW 4.5 mph7.2 kmh 29.80 in1009.1 mb 0.00 in0.0 mm 0.00 in0.0 mm 0.00 in0.0 mm
03:45 PM 79.0°F26.1°C 62.5°F16.9°C 57% 5.4 mph W8.7 kmh W 13.0 mph20.9 kmh 29.80 in1009.1 mb 0.00 in0.0 mm 0.00 in0.0 mm 0.00 in0.0 mm
04:00 PM 76.6°F24.8°C 61.8°F16.6°C 60% 9.2 mph SSW14.8 kmh SSW 15.2 mph24.5 kmh 29.81 in1009.5 mb 0.00 in0.0 mm 0.00 in0.0 mm 0.00 in0.0 mm
04:15 PM 74.1°F23.4°C 62.1°F16.7°C 66% 6.9 mph S11.1 kmh S 13.0 mph20.9 kmh 29.81 in1009.5 mb 0.00 in0.0 mm 0.00 in0.0 mm 0.00 in0.0 mm
04:30 PM 73.8°F23.2°C 62.6°F17.0°C 68% 9.2 mph S14.8 kmh S 15.9 mph25.6 kmh 29.82 in1009.8 mb 0.00 in0.0 mm 0.00 in0.0 mm 0.00 in0.0 mm
04:45 PM 71.8°F22.1°C 59.8°F15.4°C 66% 6.0 mph SSW9.7 kmh SSW 22.8 mph36.7 kmh 29.82 in1009.8 mb 0.00 in0.0 mm 0.00 in0.0 mm 0.00 in0.0 mm
05:00 PM 70.9°F21.6°C 59.8°F15.4°C 68% 12.1 mph S19.5 kmh S 21.3 mph34.3 kmh 29.83 in1010.2 mb 0.00 in0.0 mm 0.00 in0.0 mm 0.00 in0.0 mm
05:15 PM 68.9°F20.5°C 57.5°F14.2°C 67% 14.5 mph S23.3 kmh S 26.6 mph42.8 kmh 29.84 in1010.5 mb 0.00 in0.0 mm 0.00 in0.0 mm 0.00 in0.0 mm
05:30 PM 67.5°F19.7°C 56.6°F13.7°C 68% 11.4 mph SSW18.3 kmh SSW 23.5 mph37.8 kmh 29.84 in1010.5 mb 0.00 in0.0 mm 0.00 in0.0 mm 0.00 in0.0 mm
05:45 PM 66.2°F19.0°C 55.8°F13.2°C 69% 11.4 mph S18.3 kmh S 21.3 mph34.3 kmh 29.86 in1011.2 mb 0.00 in0.0 mm 0.00 in0.0 mm 0.00 in0.0 mm
06:00 PM 65.1°F18.4°C 55.5°F13.1°C 71% 12.1 mph S19.5 kmh S 23.5 mph37.8 kmh 29.87 in1011.5 mb 0.00 in0.0 mm 0.00 in0.0 mm 0.00 in0.0 mm
06:15 PM 64.6°F18.1°C 55.0°F12.8°C 71% 10.7 mph S17.2 kmh S 23.5 mph37.8 kmh 29.88 in1011.9 mb 0.00 in0.0 mm 0.00 in0.0 mm 0.00 in0.0 mm
06:30 PM 64.0°F17.8°C 54.8°F12.7°C 72% 9.8 mph S15.8 kmh S 25.1 mph40.4 kmh 29.89 in1012.2 mb 0.00 in0.0 mm 0.00 in0.0 mm 0.00 in0.0 mm
06:45 PM 63.3°F17.4°C 50.5°F10.3°C 63% 13.6 mph S21.9 kmh S 23.5 mph37.8 kmh 29.90 in1012.5 mb 0.00 in0.0 mm 0.00 in0.0 mm 0.00 in0.0 mm
07:00 PM 62.4°F16.9°C 48.8°F9.3°C 61% 15.2 mph S24.5 kmh S 21.3 mph34.3 kmh 29.91 in1012.9 mb 0.00 in0.0 mm 0.00 in0.0 mm 0.00 in0.0 mm
07:15 PM 61.9°F16.6°C 48.7°F9.3°C 62% 15.2 mph S24.5 kmh S 22.8 mph36.7 kmh 29.92 in1013.2 mb 0.00 in0.0 mm 0.00 in0.0 mm 0.00 in0.0 mm
07:30 PM 61.5°F16.4°C 48.4°F9.1°C 62% 19.0 mph S30.6 kmh S 26.6 mph42.8 kmh 29.94 in1013.9 mb 0.00 in0.0 mm 0.00 in0.0 mm 0.00 in0.0 mm
07:45 PM 60.8°F16.0°C 45.5°F7.5°C 57% 17.4 mph S28.0 kmh S 29.8 mph48.0 kmh 29.96 in1014.6 mb 0.00 in0.0 mm 0.00 in0.0 mm 0.00 in0.0 mm
08:00 PM 60.4°F15.8°C 45.1°F7.3°C 57% 10.7 mph S17.2 kmh S 28.9 mph46.5 kmh 29.98 in1015.2 mb 0.00 in0.0 mm 0.00 in0.0 mm 0.00 in0.0 mm
08:15 PM 60.1°F15.6°C 45.7°F7.6°C 59% 15.9 mph S25.6 kmh S 24.4 mph39.3 kmh 29.98 in1015.2 mb 0.00 in0.0 mm 0.00 in0.0 mm 0.00 in0.0 mm
08:30 PM 59.2°F15.1°C 42.6°F5.9°C 54% 9.2 mph SSE14.8 kmh SSE 34.2 mph55.0 kmh 29.99 in1015.6 mb 0.00 in0.0 mm 0.00 in0.0 mm 0.00 in0.0 mm
08:45 PM 58.5°F14.7°C 44.2°F6.8°C 59% 10.7 mph S17.2 kmh S 29.8 mph48.0 kmh 30.00 in1015.9 mb 0.00 in0.0 mm 0.00 in0.0 mm 0.00 in0.0 mm
09:00 PM 58.1°F14.5°C 46.0°F7.8°C 64% 15.2 mph S24.5 kmh S 20.6 mph33.2 kmh 30.00 in1015.9 mb 0.00 in0.0 mm 0.00 in0.0 mm 0.00 in0.0 mm
09:15 PM 56.8°F13.8°C 45.2°F7.3°C 65% 11.4 mph S18.3 kmh S 31.1 mph50.1 kmh 30.01 in1016.3 mb 0.00 in0.0 mm 0.00 in0.0 mm 0.00 in0.0 mm
09:30 PM 55.9°F13.3°C 45.2°F7.3°C 67% 17.4 mph SSE28.0 kmh SSE 24.4 mph39.3 kmh 30.01 in1016.3 mb 0.00 in0.0 mm 0.00 in0.0 mm 0.00 in0.0 mm
09:45 PM 55.2°F12.9°C 46.0°F7.8°C 71% 14.5 mph S23.3 kmh S 21.3 mph34.3 kmh 30.04 in1017.3 mb 0.00 in0.0 mm 0.00 in0.0 mm 0.00 in0.0 mm
10:00 PM 54.5°F12.5°C 46.4°F8.0°C 74% 9.8 mph SSE15.8 kmh SSE 22.1 mph35.6 kmh 30.03 in1016.9 mb 0.00 in0.0 mm 0.00 in0.0 mm 0.00 in0.0 mm
10:15 PM 55.0°F12.8°C 46.2°F7.9°C 72% 9.8 mph SSW15.8 kmh SSW 23.5 mph37.8 kmh 30.07 in1018.3 mb 0.00 in0.0 mm 0.00 in0.0 mm 0.00 in0.0 mm
10:30 PM 54.1°F12.3°C 45.7°F7.6°C 73% 13.0 mph SSE20.9 kmh SSE 23.5 mph37.8 kmh 30.06 in1017.9 mb 0.00 in0.0 mm 0.00 in0.0 mm 0.00 in0.0 mm
10:45 PM 52.9°F11.6°C 46.2°F7.9°C 78% 13.6 mph S21.9 kmh S 22.8 mph36.7 kmh 30.07 in1018.3 mb 0.00 in0.0 mm 0.00 in0.0 mm 0.00 in0.0 mm
11:00 PM 51.4°F10.8°C 47.4°F8.6°C 86% 9.2 mph SE14.8 kmh SE 21.3 mph34.3 kmh 30.08 in1018.6 mb 0.11 in2.8 mm 0.15 in3.8 mm 0.11 in2.8 mm
11:15 PM 51.1°F10.6°C 48.0°F8.9°C 89% 12.1 mph S19.5 kmh S 19.7 mph31.7 kmh 30.11 in1019.6 mb 0.22 in5.6 mm 0.44 in11.2 mm 0.22 in5.6 mm
11:30 PM 50.9°F10.5°C 47.8°F8.8°C 89% 13.0 mph SE20.9 kmh SE 21.3 mph34.3 kmh 30.09 in1019.0 mb 0.24 in6.1 mm 0.08 in2.0 mm 0.24 in6.1 mm
11:45 PM 51.4°F10.8°C 46.5°F8.1°C 83% 5.4 mph SSE8.7 kmh SSE 29.8 mph48.0 kmh 30.11 in1019.6 mb 0.24 in6.1 mm 0.00 in0.0 mm 0.24 in6.1 mm